Time;durP1;ratioP1;P1;durP2;ratioP2;P2;SDS_P1;SDS_P2;PMS_P1;PMS_P2;Temp;Humidity;BMP_temperature;BMP_pressure;BME280_temperature;BME280_humidity;BME280_pressure;Samples;Min_cycle;Max_cycle;Signal;HPM_P1;HPM_P2
2022/09/11 04:04:16;;;;;;;2.30;2.20;;;16.10;99.90;;;;;;6233838;22;20463;-60
2022/09/11 04:06:42;;;;;;;3.50;3.20;;;16.10;99.90;;;;;;6246725;22;20768;-61
2022/09/11 04:09:07;;;;;;;2.60;2.20;;;16.10;99.90;;;;;;6246218;23;20363;-60
2022/09/11 04:11:37;;;;;;;2.90;2.70;;;16.10;99.90;;;;;;6245614;23;20944;-60
2022/09/11 04:14:06;;;;;;;2.47;2.27;;;16.10;99.90;;;;;;6233510;23;20385;-61
2022/09/11 04:16:32;;;;;;;2.83;2.53;;;16.10;99.90;;;;;;6188887;23;20971;-60
2022/09/11 04:18:59;;;;;;;2.93;2.70;;;16.10;99.90;;;;;;6215504;23;20372;-60
2022/09/11 04:21:26;;;;;;;3.03;2.83;;;16.10;99.90;;;;;;6188897;23;20695;-60
2022/09/11 04:23:54;;;;;;;4.53;2.93;;;16.10;99.90;;;;;;6214928;23;20367;-61
2022/09/11 04:26:22;;;;;;;2.90;2.70;;;16.20;99.90;;;;;;6215358;23;20398;-60
2022/09/11 04:28:48;;;;;;;3.73;3.30;;;16.20;99.90;;;;;;6215131;23;20406;-60
2022/09/11 04:31:15;;;;;;;3.40;3.20;;;16.20;99.90;;;;;;6215105;23;20414;-61
2022/09/11 04:33:42;;;;;;;3.43;3.20;;;16.10;99.90;;;;;;6213347;23;20173;-60
2022/09/11 04:36:10;;;;;;;4.20;3.67;;;16.10;99.90;;;;;;6215140;23;20345;-60
2022/09/11 04:38:37;;;;;;;3.50;3.20;;;16.10;99.90;;;;;;6215150;23;20833;-60
2022/09/11 04:41:04;;;;;;;3.73;2.90;;;16.10;99.90;;;;;;6215466;23;20376;-60
2022/09/11 04:43:30;;;;;;;4.17;3.23;;;16.10;99.90;;;;;;6215092;23;20392;-60
2022/09/11 04:46:01;;;;;;;3.33;3.10;;;16.10;99.90;;;;;;6215362;23;20385;-60
2022/09/11 04:48:26;;;;;;;3.30;3.00;;;16.10;99.90;;;;;;6215735;23;20375;-60
2022/09/11 04:51:04;;;;;;;3.30;3.00;;;16.20;99.90;;;;;;6215541;23;20413;-60
2022/09/11 04:53:33;;;;;;;3.60;3.27;;;16.20;99.90;;;;;;6214530;23;20167;-60
2022/09/11 04:56:07;;;;;;;3.23;2.80;;;16.20;99.90;;;;;;6213267;23;20345;-60
2022/09/11 04:58:33;;;;;;;2.73;2.53;;;16.10;99.90;;;;;;6213878;23;20356;-60
2022/09/11 05:00:59;;;;;;;3.43;3.13;;;16.10;99.90;;;;;;6214052;23;20376;-60
2022/09/11 05:03:25;;;;;;;3.37;3.07;;;16.10;99.90;;;;;;6213595;23;20368;-60
2022/09/11 05:05:51;;;;;;;3.90;3.60;;;16.10;99.90;;;;;;6213617;23;20393;-60
2022/09/11 05:08:22;;;;;;;3.23;2.93;;;16.10;99.90;;;;;;6213705;23;20662;-60
2022/09/11 05:10:48;;;;;;;3.63;3.33;;;16.10;99.90;;;;;;6214029;23;20433;-60
2022/09/11 05:13:14;;;;;;;3.30;3.10;;;16.10;99.90;;;;;;6213317;23;20403;-60
2022/09/11 05:15:39;;;;;;;3.20;3.00;;;16.10;99.90;;;;;;6213675;23;20365;-60
2022/09/11 05:18:05;;;;;;;3.87;3.50;;;16.20;99.90;;;;;;6214085;23;20159;-60
2022/09/11 05:20:31;;;;;;;3.37;3.17;;;16.20;99.90;;;;;;6213739;23;20184;-61
2022/09/11 05:22:57;;;;;;;3.53;3.20;;;16.20;99.90;;;;;;6213145;23;20460;-60
2022/09/11 05:25:24;;;;;;;2.80;2.60;;;16.20;99.90;;;;;;6213557;23;20169;-60
2022/09/11 05:27:50;;;;;;;4.20;3.53;;;16.20;99.90;;;;;;6213714;23;20455;-61
2022/09/11 05:30:16;;;;;;;3.50;3.20;;;16.20;99.90;;;;;;6213612;23;20913;-61
2022/09/11 05:32:41;;;;;;;4.43;4.13;;;16.20;99.90;;;;;;6213498;23;20416;-61
2022/09/11 05:35:07;;;;;;;6.03;3.97;;;16.20;99.90;;;;;;6213376;23;20252;-60
2022/09/11 05:37:33;;;;;;;4.47;3.83;;;16.20;99.90;;;;;;6214810;23;20156;-61
2022/09/11 05:39:58;;;;;;;3.77;3.47;;;16.20;99.90;;;;;;6215537;23;20157;-61
2022/09/11 05:42:27;;;;;;;4.03;3.63;;;16.20;99.90;;;;;;6215207;23;20196;-61
2022/09/11 05:44:53;;;;;;;3.93;3.63;;;16.20;99.90;;;;;;6215516;23;20217;-61
2022/09/11 05:47:19;;;;;;;7.27;4.03;;;16.20;99.90;;;;;;6215410;23;20373;-61
2022/09/11 05:49:45;;;;;;;4.00;3.70;;;16.30;99.90;;;;;;6215476;23;20380;-62
2022/09/11 05:52:10;;;;;;;3.57;3.27;;;16.20;99.90;;;;;;6215515;23;20173;-61
2022/09/11 05:54:36;;;;;;;3.43;2.80;;;16.30;99.90;;;;;;6215137;23;20169;-61
2022/09/11 05:57:01;;;;;;;5.83;3.60;;;16.30;99.90;;;;;;6215452;23;20146;-61
2022/09/11 05:59:27;;;;;;;3.17;2.97;;;16.30;99.90;;;;;;6215529;23;20180;-60
2022/09/11 06:01:53;;;;;;;7.37;5.67;;;16.40;99.90;;;;;;6215446;23;20154;-61
2022/09/11 06:04:18;;;;;;;5.13;4.63;;;16.40;99.90;;;;;;6215003;23;20201;-61
2022/09/11 06:06:46;;;;;;;4.10;3.70;;;16.40;99.90;;;;;;6215374;23;20161;-61
2022/09/11 06:09:12;;;;;;;3.30;3.00;;;16.40;99.90;;;;;;6215380;23;20154;-61
2022/09/11 06:11:38;;;;;;;3.90;3.60;;;16.50;99.90;;;;;;6215191;23;20384;-60
2022/09/11 06:14:03;;;;;;;3.60;3.30;;;16.50;99.90;;;;;;6215174;23;20448;-62
2022/09/11 06:16:30;;;;;;;4.50;3.73;;;16.50;99.90;;;;;;6215536;23;20154;-60
2022/09/11 06:18:56;;;;;;;4.40;3.67;;;16.50;99.90;;;;;;6215576;23;20493;-62
2022/09/11 06:21:24;;;;;;;4.13;3.73;;;16.50;99.90;;;;;;6215365;23;20377;-62
2022/09/11 06:23:51;;;;;;;3.43;3.20;;;16.50;99.90;;;;;;6214804;23;20528;-59
2022/09/11 06:26:20;;;;;;;5.40;3.73;;;16.50;99.90;;;;;;6215193;23;20348;-61
2022/09/11 06:28:46;;;;;;;5.53;3.73;;;16.50;99.90;;;;;;6215160;23;20351;-61
2022/09/11 06:31:17;;;;;;;4.07;3.67;;;16.50;99.90;;;;;;6214975;23;20490;-61
2022/09/11 06:33:43;;;;;;;3.87;3.57;;;16.50;99.90;;;;;;6214687;23;20468;-61
2022/09/11 06:36:12;;;;;;;5.83;5.23;;;16.50;99.90;;;;;;6215009;23;20423;-61
2022/09/11 06:38:37;;;;;;;4.97;4.30;;;16.60;99.90;;;;;;6216384;23;20428;-61
2022/09/11 06:41:05;;;;;;;6.40;5.43;;;16.60;99.90;;;;;;6216675;23;20451;-61
2022/09/11 06:43:31;;;;;;;4.00;3.70;;;16.70;99.90;;;;;;6215702;23;20165;-61
2022/09/11 06:46:11;;;;;;;3.37;3.10;;;16.60;99.90;;;;;;6216044;23;20468;-61
2022/09/11 06:48:38;;;;;;;3.87;3.60;;;16.70;99.90;;;;;;6216230;23;20384;-61
2022/09/11 06:51:05;;;;;;;4.33;3.93;;;16.70;99.90;;;;;;6216436;23;20408;-61
2022/09/11 06:53:31;;;;;;;5.40;4.90;;;16.70;99.90;;;;;;6216134;23;20389;-61
2022/09/11 06:56:05;;;;;;;4.53;3.87;;;16.70;99.90;;;;;;6216161;23;20460;-61
2022/09/11 06:58:32;;;;;;;4.03;3.70;;;16.80;99.90;;;;;;6216429;23;20201;-61
2022/09/11 07:01:02;;;;;;;4.03;3.73;;;16.80;99.90;;;;;;6216177;23;20400;-61
2022/09/11 07:03:28;;;;;;;5.00;4.60;;;16.90;99.90;;;;;;6216002;23;20398;-61
2022/09/11 07:05:53;;;;;;;5.97;5.20;;;16.90;99.90;;;;;;6189685;23;20398;-61
2022/09/11 07:08:19;;;;;;;7.20;6.07;;;16.90;99.90;;;;;;6215914;23;20516;-61
2022/09/11 07:10:45;;;;;;;4.80;4.30;;;17.00;99.90;;;;;;6216230;23;20191;-60
2022/09/11 07:13:10;;;;;;;7.83;4.87;;;17.00;99.90;;;;;;6214308;23;20478;-60
2022/09/11 07:15:36;;;;;;;5.00;4.50;;;17.00;99.90;;;;;;6215978;23;20283;-60
2022/09/11 07:18:02;;;;;;;5.43;4.93;;;17.10;99.90;;;;;;6215844;23;20156;-60
2022/09/11 07:20:27;;;;;;;5.67;4.50;;;17.10;99.90;;;;;;6215522;23;20152;-62
2022/09/11 07:22:53;;;;;;;4.33;3.83;;;17.10;99.90;;;;;;6214517;23;20225;-62
2022/09/11 07:25:19;;;;;;;5.07;4.67;;;17.20;99.90;;;;;;6214799;23;20361;-65
2022/09/11 07:27:45;;;;;;;5.20;4.57;;;17.30;99.90;;;;;;6214897;23;20484;-63
2022/09/11 07:30:11;;;;;;;5.40;4.63;;;17.40;99.90;;;;;;6215337;23;20376;-64
2022/09/11 07:32:36;;;;;;;3.90;3.60;;;17.40;99.90;;;;;;6215218;23;20259;-63
2022/09/11 07:35:03;;;;;;;3.77;3.50;;;17.50;99.90;;;;;;6215295;23;20366;-62
2022/09/11 07:37:29;;;;;;;4.57;3.87;;;17.60;99.90;;;;;;6214968;23;20154;-64
2022/09/11 07:39:55;;;;;;;3.33;3.13;;;17.70;99.90;;;;;;6214878;23;20426;-65
2022/09/11 07:42:20;;;;;;;4.47;4.07;;;17.70;99.90;;;;;;6214345;23;20150;-64
2022/09/11 07:44:46;;;;;;;3.90;3.60;;;17.80;99.90;;;;;;6215202;23;20201;-63
2022/09/11 07:47:12;;;;;;;4.50;3.97;;;17.80;99.90;;;;;;6215254;23;20146;-65
2022/09/11 07:49:37;;;;;;;4.00;3.70;;;17.80;99.90;;;;;;6214915;23;20153;-66
2022/09/11 07:52:03;;;;;;;3.60;3.30;;;17.90;99.90;;;;;;6215406;23;20169;-65
2022/09/11 07:54:29;;;;;;;3.43;3.13;;;18.00;99.90;;;;;;6214725;23;20188;-66
2022/09/11 07:56:56;;;;;;;4.20;3.90;;;18.20;99.90;;;;;;6215506;23;20424;-65
2022/09/11 07:59:22;;;;;;;4.40;4.00;;;18.30;99.90;;;;;;6188783;23;20850;-65
2022/09/11 08:01:52;;;;;;;4.20;3.90;;;18.50;99.90;;;;;;6214640;23;20452;-64
2022/09/11 08:04:17;;;;;;;3.20;3.00;;;18.70;99.90;;;;;;6215255;23;20695;-65
2022/09/11 08:06:43;;;;;;;3.20;3.00;;;18.90;99.90;;;;;;6215339;23;20371;-66
2022/09/11 08:09:14;;;;;;;4.80;4.30;;;19.20;99.90;;;;;;6214778;23;20163;-67
2022/09/11 08:11:44;;;;;;;4.93;3.70;;;19.40;99.90;;;;;;6215444;23;20205;-65
2022/09/11 08:14:12;;;;;;;4.60;3.70;;;19.60;99.90;;;;;;6215513;23;20396;-66
2022/09/11 08:16:38;;;;;;;4.00;3.60;;;19.60;99.90;;;;;;6214943;23;20369;-66
2022/09/11 08:19:04;;;;;;;4.27;3.50;;;19.60;99.90;;;;;;6215375;23;20365;-65
2022/09/11 08:21:31;;;;;;;5.37;4.93;;;19.60;99.90;;;;;;6215210;23;20347;-64
2022/09/11 08:23:56;;;;;;;8.30;4.53;;;19.70;99.90;;;;;;6214300;23;20470;-65
2022/09/11 08:26:29;;;;;;;4.57;4.17;;;19.70;99.90;;;;;;6214939;23;20368;-63
2022/09/11 08:28:57;;;;;;;5.90;5.40;;;19.80;99.90;;;;;;6215753;23;20234;-61
2022/09/11 08:31:25;;;;;;;4.03;3.73;;;20.00;99.90;;;;;;6215210;23;20413;-62
2022/09/11 08:33:51;;;;;;;4.23;3.43;;;;;;;;;;6214834;23;20720;-65
2022/09/11 08:36:17;;;;;;;4.43;4.03;;;20.40;99.90;;;;;;6215228;23;20376;-64
2022/09/11 08:38:44;;;;;;;3.90;3.60;;;;;;;;;;6215146;23;20665;-68
2022/09/11 08:41:27;;;;;;;4.33;3.93;;;;;;;;;;6215298;23;20365;-67
2022/09/11 08:43:56;;;;;;;3.37;3.17;;;;;;;;;;6214809;23;20454;-65
2022/09/11 08:46:25;;;;;;;2.73;2.53;;;21.20;99.90;;;;;;6215094;23;20339;-64
2022/09/11 08:49:07;;;;;;;3.67;3.37;;;25.50;99.90;;;;;;6215273;23;20387;-64
2022/09/11 08:51:33;;;;;;;3.07;2.87;;;;;;;;;;6215128;23;20375;-64
2022/09/11 08:54:00;;;;;;;3.17;2.97;;;;;;;;;;6214578;23;20405;-64
2022/09/11 08:56:29;;;;;;;1.90;1.80;;;25.40;99.70;;;;;;6214649;23;20434;-61
2022/09/11 08:59:25;;;;;;;3.00;2.80;;;26.90;99.10;;;;;;6215282;23;20362;-65
2022/09/11 09:02:00;;;;;;;3.30;2.93;;;27.70;96.20;;;;;;6215116;23;20349;-64
2022/09/11 09:04:51;;;;;;;3.30;3.00;;;28.80;95.20;;;;;;6214655;23;20387;-65
2022/09/11 09:07:46;;;;;;;4.70;3.03;;;30.10;92.70;;;;;;6188202;23;20456;-65
2022/09/11 09:10:21;;;;;;;3.07;2.87;;;31.00;89.50;;;;;;6215359;23;20723;-65
2022/09/11 09:12:55;;;;;;;3.77;3.47;;;31.80;88.00;;;;;;6215699;23;20860;-65
2022/09/11 09:15:29;;;;;;;3.10;2.90;;;;;;;;;;6217225;23;20388;-64
2022/09/11 09:18:11;;;;;;;2.93;2.73;;;32.40;84.70;;;;;;6217241;23;20647;-65
2022/09/11 09:20:43;;;;;;;3.00;2.80;;;33.00;80.80;;;;;;6217353;23;20655;-64
2022/09/11 09:23:22;;;;;;;3.50;3.30;;;32.40;78.10;;;;;;6216337;23;20735;-63
2022/09/11 09:25:51;;;;;;;3.03;2.83;;;31.00;80.40;;;;;;6216957;23;20733;-63
2022/09/11 09:28:28;;;;;;;3.40;3.20;;;29.60;83.50;;;;;;6216796;23;20715;-64
2022/09/11 09:30:57;;;;;;;3.30;3.10;;;28.40;86.70;;;;;;6216837;23;20400;-66
2022/09/11 09:33:29;;;;;;;3.77;3.47;;;;;;;;;;6216782;23;20373;-65
2022/09/11 09:35:56;;;;;;;3.33;3.03;;;27.20;89.50;;;;;;6216873;23;20320;-66
2022/09/11 09:38:27;;;;;;;2.93;2.80;;;25.50;94.00;;;;;;6217154;23;20344;-66
2022/09/11 09:41:30;;;;;;;3.60;3.30;;;26.00;95.50;;;;;;6217098;23;20353;-64
2022/09/11 09:44:22;;;;;;;3.90;3.70;;;27.00;92.70;;;;;;6216806;23;20479;-65
2022/09/11 09:46:52;;;;;;;3.50;3.20;;;28.10;92.00;;;;;;6217186;23;20345;-65
2022/09/11 09:49:38;;;;;;;3.30;3.10;;;28.90;89.60;;;;;;6217121;23;20364;-65
2022/09/11 09:52:32;;;;;;;3.10;2.90;;;28.40;87.30;;;;;;6216800;23;20441;-65
2022/09/11 09:55:00;;;;;;;3.20;2.90;;;27.40;87.80;;;;;;6213209;23;20405;-63
2022/09/11 09:57:38;;;;;;;5.40;3.37;;;26.60;89.70;;;;;;6216859;23;20377;-66
2022/09/11 10:00:05;;;;;;;2.90;2.70;;;;;;;;;;6216835;23;20388;-65
2022/09/11 10:02:38;;;;;;;2.93;2.73;;;;;;;;;;6216719;23;20373;-66
2022/09/11 10:05:18;;;;;;;4.33;3.40;;;;;;;;;;6216475;23;20418;-66
2022/09/11 10:07:52;;;;;;;3.70;3.40;;;;;;;;;;6216596;23;20341;-65
2022/09/11 10:10:26;;;;;;;3.53;3.33;;;;;;;;;;6216394;23;20358;-65
2022/09/11 10:12:53;;;;;;;2.83;2.63;;;;;;;;;;6216177;23;20384;-64
2022/09/11 10:15:21;;;;;;;3.50;3.20;;;25.80;91.20;;;;;;6215689;23;20396;-63
2022/09/11 10:17:48;;;;;;;3.47;3.17;;;23.00;97.00;;;;;;6216476;23;20693;-63
2022/09/11 10:20:17;;;;;;;5.00;4.30;;;22.80;97.60;;;;;;6216625;23;20347;-64
2022/09/11 10:22:44;;;;;;;3.30;3.00;;;22.70;97.90;;;;;;6215794;23;20375;-65
2022/09/11 10:25:14;;;;;;;4.90;3.57;;;22.80;97.60;;;;;;6216128;23;20363;-64
2022/09/11 10:28:07;;;;;;;2.77;2.57;;;23.30;96.30;;;;;;6216857;23;20387;-65
2022/09/11 10:30:39;;;;;;;4.47;3.40;;;23.80;95.10;;;;;;6216442;23;20331;-67
2022/09/11 10:33:22;;;;;;;2.83;2.63;;;24.10;94.30;;;;;;6215955;23;20338;-65
2022/09/11 10:35:54;;;;;;;2.90;2.70;;;24.30;94.30;;;;;;6189816;23;20360;-65
2022/09/11 10:38:40;;;;;;;2.83;2.67;;;24.30;94.80;;;;;;6216524;23;20399;-64
2022/09/11 10:41:33;;;;;;;3.70;3.40;;;24.00;94.70;;;;;;6189960;23;20386;-65
2022/09/11 10:44:09;;;;;;;2.60;2.40;;;23.70;95.30;;;;;;6215991;23;20467;-64
2022/09/11 10:46:37;;;;;;;3.77;3.47;;;23.40;95.20;;;;;;6216347;23;20820;-65
2022/09/11 10:49:14;;;;;;;3.63;3.17;;;22.90;96.40;;;;;;6216485;23;20347;-65
2022/09/11 10:51:55;;;;;;;4.63;3.00;;;22.50;97.20;;;;;;6216498;23;20706;-66
2022/09/11 10:54:44;;;;;;;3.30;3.10;;;22.10;97.30;;;;;;6215588;23;20385;-66
2022/09/11 10:57:42;;;;;;;3.80;3.50;;;21.90;98.40;;;;;;6216922;23;20374;-68
2022/09/11 11:00:21;;;;;;;4.60;4.30;;;21.80;98.80;;;;;;6215796;23;20357;-66
2022/09/11 11:02:51;;;;;;;3.27;3.07;;;21.70;99.30;;;;;;6216133;23;20376;-65
2022/09/11 11:06:02;;;;;;;3.50;3.20;;;21.70;99.90;;;;;;6215844;23;20409;-66
2022/09/11 11:08:47;;;;;;;3.90;3.37;;;21.80;99.90;;;;;;6216151;23;20349;-65
2022/09/11 11:12:02;;;;;;;3.10;2.90;;;22.00;99.70;;;;;;6216308;23;20416;-65
2022/09/11 11:15:01;;;;;;;3.80;3.50;;;22.10;99.50;;;;;;6093957;23;20390;-65
2022/09/11 11:17:47;;;;;;;3.93;3.53;;;22.20;99.70;;;;;;6215549;23;20419;-65
2022/09/11 11:20:24;;;;;;;5.03;4.23;;;22.30;98.60;;;;;;6215912;23;20352;-66
2022/09/11 11:23:05;;;;;;;4.47;3.93;;;22.50;98.80;;;;;;6215682;23;20458;-67
2022/09/11 11:25:56;;;;;;;3.50;3.20;;;22.50;97.10;;;;;;6189484;23;20383;-68
2022/09/11 11:29:00;;;;;;;3.63;3.07;;;22.50;97.20;;;;;;6216199;23;20334;-69
2022/09/11 11:32:02;;;;;;;3.17;2.97;;;22.60;97.80;;;;;;6215910;23;20408;-66
2022/09/11 11:34:30;;;;;;;3.17;2.90;;;22.80;97.40;;;;;;6215238;23;20741;-66
2022/09/11 11:37:18;;;;;;;3.53;3.33;;;23.10;97.90;;;;;;6215914;23;20335;-68
2022/09/11 11:40:29;;;;;;;5.30;4.80;;;23.40;96.70;;;;;;6215789;23;20705;-66
2022/09/11 11:43:08;;;;;;;3.40;3.10;;;23.60;96.40;;;;;;6215584;23;20428;-67
2022/09/11 11:45:43;;;;;;;3.60;3.30;;;23.60;95.40;;;;;;6216042;23;20335;-67
2022/09/11 11:48:28;;;;;;;3.57;3.20;;;23.50;95.80;;;;;;6215874;23;20357;-67
2022/09/11 11:51:01;;;;;;;4.00;3.70;;;23.50;95.90;;;;;;6215599;23;20344;-67
2022/09/11 11:53:31;;;;;;;3.87;3.47;;;23.40;95.90;;;;;;6215367;23;20418;-66
2022/09/11 11:56:10;;;;;;;3.60;3.40;;;23.20;96.00;;;;;;6189113;23;20362;-67
2022/09/11 11:59:00;;;;;;;4.97;3.53;;;23.00;96.10;;;;;;6215711;23;20378;-67
2022/09/11 12:01:35;;;;;;;3.50;3.20;;;22.90;96.40;;;;;;6215635;23;20332;-66
2022/09/11 12:04:12;;;;;;;4.63;3.60;;;22.80;95.90;;;;;;6214936;23;20460;-67
2022/09/11 12:06:37;;;;;;;4.13;3.73;;;22.60;96.40;;;;;;6214796;23;20367;-67
2022/09/11 12:09:07;;;;;;;3.60;3.33;;;22.50;96.30;;;;;;6213015;23;20377;-68
2022/09/11 12:11:33;;;;;;;3.97;3.57;;;22.40;96.00;;;;;;6213094;23;20179;-67
2022/09/11 12:14:00;;;;;;;3.93;3.03;;;22.30;96.10;;;;;;6212539;23;20902;-66
2022/09/11 12:16:27;;;;;;;4.10;3.80;;;22.20;96.20;;;;;;6213098;23;20435;-65
2022/09/11 12:19:06;;;;;;;3.23;3.03;;;22.10;97.00;;;;;;6213409;23;20370;-67
2022/09/11 12:21:35;;;;;;;3.30;3.10;;;22.20;96.40;;;;;;6213207;23;20349;-68
2022/09/11 12:24:00;;;;;;;3.50;3.30;;;22.20;97.00;;;;;;6215237;23;20398;-68
2022/09/11 12:26:27;;;;;;;3.80;3.50;;;22.20;96.80;;;;;;6188696;23;20938;-67
2022/09/11 12:29:11;;;;;;;5.33;3.83;;;22.40;97.50;;;;;;6215551;23;20145;-67
2022/09/11 12:31:49;;;;;;;3.00;2.80;;;22.50;96.30;;;;;;6215834;23;20413;-68
2022/09/11 12:34:46;;;;;;;3.00;2.80;;;22.50;96.40;;;;;;6215008;23;20387;-68
2022/09/11 12:37:24;;;;;;;3.10;2.90;;;22.40;95.70;;;;;;6215477;23;20350;-68
2022/09/11 12:39:57;;;;;;;3.70;3.40;;;22.20;95.90;;;;;;6215770;23;20359;-68
2022/09/11 12:42:22;;;;;;;3.07;2.77;;;22.20;96.10;;;;;;6215500;23;20643;-67
2022/09/11 12:44:48;;;;;;;3.60;3.30;;;22.30;96.70;;;;;;6215461;23;20521;-68
2022/09/11 12:47:27;;;;;;;3.70;3.40;;;22.20;96.00;;;;;;6217172;23;20564;-68
2022/09/11 12:50:21;;;;;;;2.93;2.73;;;22.20;95.90;;;;;;6217175;23;20141;-65
2022/09/11 12:52:53;;;;;;;3.30;3.07;;;22.10;95.30;;;;;;6202859;23;20401;-65
2022/09/11 12:55:38;;;;;;;4.47;3.27;;;22.10;95.60;;;;;;6217515;23;20389;-68
2022/09/11 12:58:21;;;;;;;3.57;3.27;;;22.00;95.20;;;;;;6217823;23;20721;-68
2022/09/11 13:00:53;;;;;;;3.20;3.00;;;22.00;95.90;;;;;;6217905;23;20352;-65
2022/09/11 13:03:26;;;;;;;3.27;3.00;;;22.00;96.30;;;;;;6217143;23;20395;-65
2022/09/11 13:06:06;;;;;;;2.67;2.57;;;22.00;96.30;;;;;;6217136;23;20370;-64
2022/09/11 13:08:54;;;;;;;3.57;3.30;;;21.90;96.80;;;;;;6190680;23;20431;-65
2022/09/11 13:11:42;;;;;;;4.07;3.07;;;21.90;97.20;;;;;;6216947;23;20926;-65
2022/09/11 13:14:27;;;;;;;3.23;2.93;;;21.90;97.60;;;;;;6216660;23;20453;-65
2022/09/11 13:16:57;;;;;;;3.23;2.93;;;21.80;97.10;;;;;;6216927;23;20365;-67
2022/09/11 13:19:32;;;;;;;4.50;3.13;;;21.80;97.40;;;;;;6190289;23;20369;-67
2022/09/11 13:21:58;;;;;;;3.90;3.60;;;21.70;98.20;;;;;;6190170;23;20495;-66
2022/09/11 13:24:25;;;;;;;4.73;4.27;;;21.60;98.30;;;;;;6216553;23;20440;-64
2022/09/11 13:26:56;;;;;;;3.50;3.20;;;21.60;98.50;;;;;;6217321;23;20147;-67
2022/09/11 13:29:25;;;;;;;4.80;3.70;;;21.60;98.80;;;;;;6216909;23;20360;-64
2022/09/11 13:31:52;;;;;;;3.97;3.67;;;21.70;98.60;;;;;;6217146;23;20422;-65
2022/09/11 13:34:21;;;;;;;4.33;3.90;;;21.60;98.20;;;;;;6216452;23;20839;-65
2022/09/11 13:36:48;;;;;;;3.60;3.30;;;21.60;98.40;;;;;;6191024;23;20391;-67
2022/09/11 13:39:16;;;;;;;4.00;3.60;;;21.50;98.10;;;;;;6216822;23;20368;-68
2022/09/11 13:41:43;;;;;;;4.60;4.30;;;21.50;98.40;;;;;;6216911;23;20351;-68
2022/09/11 13:44:41;;;;;;;4.13;3.80;;;21.50;98.60;;;;;;6216459;23;20427;-66
2022/09/11 13:47:22;;;;;;;4.13;3.83;;;21.50;98.20;;;;;;6216647;23;20377;-65
2022/09/11 13:49:52;;;;;;;3.20;2.90;;;21.50;98.20;;;;;;6216241;23;20365;-69
2022/09/11 13:52:21;;;;;;;5.07;4.47;;;21.60;98.50;;;;;;6216731;23;20446;-70
2022/09/11 13:54:50;;;;;;;3.27;2.97;;;21.70;98.60;;;;;;6189991;23;20488;-66
2022/09/11 13:57:22;;;;;;;3.97;3.67;;;21.70;98.10;;;;;;6216598;23;20852;-67
2022/09/11 13:59:50;;;;;;;4.10;3.70;;;21.80;98.00;;;;;;6216502;23;20342;-65
2022/09/11 14:02:25;;;;;;;4.07;3.77;;;21.90;97.80;;;;;;6216116;23;20447;-65
2022/09/11 14:04:55;;;;;;;3.80;3.50;;;22.00;97.50;;;;;;6215740;23;20863;-65
2022/09/11 14:07:26;;;;;;;3.93;3.63;;;22.00;97.70;;;;;;6215638;23;20340;-67
2022/09/11 14:09:59;;;;;;;3.60;3.00;;;22.20;98.00;;;;;;6216501;23;20357;-64
2022/09/11 14:12:27;;;;;;;3.63;3.33;;;22.20;96.60;;;;;;6216285;23;20405;-66
2022/09/11 14:14:57;;;;;;;3.47;3.17;;;22.20;96.60;;;;;;6216613;23;20386;-65
2022/09/11 14:17:23;;;;;;;3.50;3.30;;;22.20;96.60;;;;;;6216976;23;20745;-65
2022/09/11 14:19:51;;;;;;;4.53;3.50;;;22.20;96.60;;;;;;6216669;23;20369;-64
2022/09/11 14:22:27;;;;;;;3.40;3.20;;;22.20;96.70;;;;;;6216148;23;20387;-65
2022/09/11 14:25:18;;;;;;;3.87;3.57;;;22.30;96.20;;;;;;6216383;23;20717;-66
2022/09/11 14:27:44;;;;;;;4.10;3.80;;;22.20;95.90;;;;;;6216847;23;20354;-66
2022/09/11 14:30:28;;;;;;;3.33;3.13;;;22.10;95.80;;;;;;6216345;23;20403;-66
2022/09/11 14:33:20;;;;;;;3.30;3.10;;;22.00;95.80;;;;;;6216030;23;20204;-67
2022/09/11 14:35:47;;;;;;;3.23;3.03;;;22.00;96.00;;;;;;6216638;23;20402;-66
2022/09/11 14:38:15;;;;;;;3.87;3.57;;;21.90;96.30;;;;;;6216395;23;20376;-68
2022/09/11 14:40:51;;;;;;;3.90;3.60;;;21.80;96.50;;;;;;6189270;23;20393;-68
2022/09/11 14:43:23;;;;;;;3.73;3.50;;;21.80;96.70;;;;;;6215922;23;20373;-66
2022/09/11 14:45:50;;;;;;;6.00;4.97;;;21.80;96.60;;;;;;6216584;23;20644;-73
2022/09/11 14:48:16;;;;;;;6.10;4.50;;;21.80;96.70;;;;;;6215928;23;20394;-68
2022/09/11 14:50:41;;;;;;;4.40;3.80;;;21.80;97.10;;;;;;6215925;23;20797;-65
2022/09/11 14:53:22;;;;;;;3.83;3.53;;;21.70;96.50;;;;;;6215218;23;20161;-68
2022/09/11 14:55:49;;;;;;;4.17;3.87;;;21.50;96.60;;;;;;6216365;23;20531;-67
2022/09/11 14:58:15;;;;;;;4.80;3.30;;;21.40;97.00;;;;;;6216184;23;20451;-67
2022/09/11 15:00:40;;;;;;;3.90;3.60;;;21.30;96.90;;;;;;6216687;23;20368;-67
2022/09/11 15:03:06;;;;;;;3.70;3.40;;;21.20;96.80;;;;;;6189241;23;20208;-68
2022/09/11 15:05:32;;;;;;;3.53;3.23;;;21.20;97.10;;;;;;6216235;23;20169;-68
2022/09/11 15:07:58;;;;;;;3.43;3.13;;;21.20;96.90;;;;;;6216065;23;20510;-66
2022/09/11 15:10:24;;;;;;;4.30;4.00;;;21.20;96.20;;;;;;6216822;23;20369;-66
2022/09/11 15:12:50;;;;;;;2.90;2.70;;;21.20;96.60;;;;;;6215803;23;20409;-66
2022/09/11 15:15:16;;;;;;;4.23;3.87;;;21.20;97.00;;;;;;6215855;23;20394;-66
2022/09/11 15:17:42;;;;;;;3.00;2.80;;;21.20;96.90;;;;;;6190045;23;20142;-64
2022/09/11 15:20:09;;;;;;;3.20;2.90;;;21.20;96.70;;;;;;6215592;23;20668;-65
2022/09/11 15:22:35;;;;;;;4.20;3.80;;;21.20;96.70;;;;;;6215253;23;20704;-64
2022/09/11 15:25:00;;;;;;;3.70;3.27;;;21.20;96.70;;;;;;6215804;23;20389;-64
2022/09/11 15:27:27;;;;;;;2.67;2.30;;;21.10;96.80;;;;;;6216317;23;20380;-65
2022/09/11 15:29:53;;;;;;;3.40;3.10;;;21.20;97.00;;;;;;6215450;23;20555;-66
2022/09/11 15:32:20;;;;;;;4.20;3.90;;;21.30;97.00;;;;;;6215321;23;20478;-66
2022/09/11 15:34:46;;;;;;;3.70;3.13;;;21.20;97.00;;;;;;6215581;23;20864;-64
2022/09/11 15:37:12;;;;;;;4.17;3.87;;;21.20;96.90;;;;;;6215430;23;20365;-65
2022/09/11 15:39:37;;;;;;;3.50;3.20;;;21.10;96.60;;;;;;6215409;23;20369;-66
2022/09/11 15:42:06;;;;;;;3.63;3.33;;;21.00;96.60;;;;;;6214460;23;20400;-65
2022/09/11 15:44:34;;;;;;;7.23;3.53;;;21.00;96.60;;;;;;6215088;23;20192;-66
2022/09/11 15:47:02;;;;;;;3.53;3.33;;;21.00;96.80;;;;;;6215861;23;20368;-66
2022/09/11 15:49:28;;;;;;;3.63;3.33;;;21.00;97.10;;;;;;6215534;23;20918;-65
2022/09/11 15:51:54;;;;;;;3.80;3.43;;;20.90;96.80;;;;;;6215288;23;20408;-65
2022/09/11 15:54:22;;;;;;;3.33;3.03;;;20.90;97.00;;;;;;6214858;23;20165;-64
2022/09/11 15:56:48;;;;;;;3.50;2.87;;;21.00;97.20;;;;;;6188299;23;20382;-65
2022/09/11 15:59:16;;;;;;;3.53;3.23;;;20.90;97.30;;;;;;6187974;23;20392;-66
2022/09/11 16:01:43;;;;;;;3.17;2.97;;;20.90;97.30;;;;;;6215393;23;20380;-65
2022/09/11 16:04:14;;;;;;;4.10;3.80;;;21.00;97.40;;;;;;6214967;23;20432;-65
2022/09/11 16:06:42;;;;;;;3.40;3.10;;;20.90;97.50;;;;;;6214972;23;20848;-65
2022/09/11 16:09:11;;;;;;;3.40;3.10;;;20.90;97.40;;;;;;6215240;23;20840;-65
2022/09/11 16:11:39;;;;;;;4.47;3.77;;;20.90;97.30;;;;;;6214668;23;20691;-64
2022/09/11 16:14:06;;;;;;;3.47;3.03;;;20.90;97.30;;;;;;6215038;23;20416;-66
2022/09/11 16:16:32;;;;;;;4.50;4.20;;;20.90;97.40;;;;;;6214792;23;20451;-66
2022/09/11 16:19:00;;;;;;;3.73;3.40;;;20.90;97.40;;;;;;6214994;23;20369;-66
2022/09/11 16:21:27;;;;;;;3.20;2.90;;;21.00;97.40;;;;;;6214615;23;20165;-64
2022/09/11 16:23:54;;;;;;;4.23;3.87;;;21.10;97.50;;;;;;6214730;23;20389;-65
2022/09/11 16:26:23;;;;;;;3.40;3.20;;;21.10;97.30;;;;;;6214818;23;20875;-65
2022/09/11 16:28:51;;;;;;;3.83;3.43;;;21.20;97.40;;;;;;6215014;23;20385;-65
2022/09/11 16:31:17;;;;;;;3.17;2.87;;;21.20;97.00;;;;;;6214832;23;20412;-66
2022/09/11 16:33:45;;;;;;;3.70;3.40;;;21.30;97.10;;;;;;6214413;23;20384;-67
2022/09/11 16:36:14;;;;;;;3.20;2.90;;;21.30;97.30;;;;;;6214217;23;20369;-66
2022/09/11 16:38:40;;;;;;;3.10;2.90;;;21.20;97.40;;;;;;6214440;23;20376;-66
2022/09/11 16:41:08;;;;;;;4.00;2.97;;;21.20;97.30;;;;;;6215087;23;20373;-67
2022/09/11 16:43:39;;;;;;;3.37;3.07;;;21.10;97.30;;;;;;6213993;23;20169;-67
2022/09/11 16:46:07;;;;;;;3.50;3.20;;;21.10;97.40;;;;;;6214790;23;20379;-66
2022/09/11 16:48:35;;;;;;;2.90;2.70;;;21.10;97.10;;;;;;6214493;23;20373;-68
2022/09/11 16:51:01;;;;;;;5.20;3.33;;;21.10;96.90;;;;;;6214854;23;20373;-67
2022/09/11 16:53:30;;;;;;;3.37;3.17;;;21.00;97.00;;;;;;6214174;23;20861;-67
2022/09/11 16:55:56;;;;;;;3.07;2.87;;;21.00;97.20;;;;;;6214401;23;20357;-67
2022/09/11 16:58:22;;;;;;;3.10;2.80;;;20.90;97.40;;;;;;6214805;23;20442;-66
2022/09/11 17:00:49;;;;;;;3.37;3.03;;;20.90;97.50;;;;;;6214771;23;20418;-67
2022/09/11 17:03:15;;;;;;;5.53;3.40;;;20.80;97.60;;;;;;6214388;23;20369;-67
2022/09/11 17:05:53;;;;;;;3.50;3.20;;;20.80;97.80;;;;;;6214094;23;20397;-65
2022/09/11 17:08:23;;;;;;;2.90;2.70;;;20.70;97.90;;;;;;6188080;23;20439;-66
2022/09/11 17:10:54;;;;;;;4.40;3.30;;;20.70;98.40;;;;;;6214439;23;20431;-67
2022/09/11 17:13:20;;;;;;;3.40;3.10;;;20.70;97.90;;;;;;6214412;23;20365;-67
2022/09/11 17:15:46;;;;;;;3.27;3.07;;;20.70;97.80;;;;;;6214854;23;20407;-66